sensor_id;sensor_type;location;lat;lon;timestamp;P1;durP1;ratioP1;P2;durP2;ratioP2
72864;SDS011;61000;48.120;11.548;2023-02-13T00:00:15;37.95;;;15.73;;
72864;SDS011;61000;48.120;11.548;2023-02-13T00:02:43;34.78;;;14.63;;
72864;SDS011;61000;48.120;11.548;2023-02-13T00:05:10;39.10;;;16.17;;
72864;SDS011;61000;48.120;11.548;2023-02-13T00:07:37;44.95;;;16.30;;
72864;SDS011;61000;48.120;11.548;2023-02-13T00:10:04;43.17;;;15.70;;
72864;SDS011;61000;48.120;11.548;2023-02-13T00:12:33;47.42;;;18.00;;
72864;SDS011;61000;48.120;11.548;2023-02-13T00:15:00;43.67;;;17.33;;
72864;SDS011;61000;48.120;11.548;2023-02-13T00:17:27;38.65;;;16.33;;
72864;SDS011;61000;48.120;11.548;2023-02-13T00:19:54;44.72;;;17.17;;
72864;SDS011;61000;48.120;11.548;2023-02-13T00:22:21;42.00;;;17.17;;
72864;SDS011;61000;48.120;11.548;2023-02-13T00:24:48;45.13;;;18.35;;
72864;SDS011;61000;48.120;11.548;2023-02-13T00:27:15;43.92;;;18.25;;
72864;SDS011;61000;48.120;11.548;2023-02-13T00:29:43;47.70;;;18.40;;
72864;SDS011;61000;48.120;11.548;2023-02-13T00:32:11;36.97;;;16.83;;
72864;SDS011;61000;48.120;11.548;2023-02-13T00:34:39;45.85;;;17.08;;
72864;SDS011;61000;48.120;11.548;2023-02-13T00:37:06;51.65;;;18.80;;
72864;SDS011;61000;48.120;11.548;2023-02-13T00:39:33;51.85;;;17.98;;
72864;SDS011;61000;48.120;11.548;2023-02-13T00:42:00;56.08;;;19.88;;
72864;SDS011;61000;48.120;11.548;2023-02-13T00:44:27;48.70;;;18.08;;
72864;SDS011;61000;48.120;11.548;2023-02-13T00:46:55;54.80;;;18.52;;
72864;SDS011;61000;48.120;11.548;2023-02-13T00:49:22;42.22;;;17.30;;
72864;SDS011;61000;48.120;11.548;2023-02-13T00:51:49;45.10;;;19.05;;
72864;SDS011;61000;48.120;11.548;2023-02-13T00:54:16;46.20;;;17.65;;
72864;SDS011;61000;48.120;11.548;2023-02-13T00:56:43;43.63;;;18.60;;
72864;SDS011;61000;48.120;11.548;2023-02-13T00:59:11;49.33;;;19.40;;
72864;SDS011;61000;48.120;11.548;2023-02-13T01:01:38;42.65;;;17.23;;
72864;SDS011;61000;48.120;11.548;2023-02-13T01:04:06;43.92;;;17.15;;
72864;SDS011;61000;48.120;11.548;2023-02-13T01:06:33;48.10;;;18.05;;
72864;SDS011;61000;48.120;11.548;2023-02-13T01:09:01;44.72;;;18.65;;
72864;SDS011;61000;48.120;11.548;2023-02-13T01:11:28;46.65;;;18.42;;
72864;SDS011;61000;48.120;11.548;2023-02-13T01:13:59;45.95;;;17.38;;
72864;SDS011;61000;48.120;11.548;2023-02-13T01:16:25;46.22;;;18.05;;
72864;SDS011;61000;48.120;11.548;2023-02-13T01:18:54;50.80;;;19.25;;
72864;SDS011;61000;48.120;11.548;2023-02-13T01:21:22;39.60;;;17.88;;
72864;SDS011;61000;48.120;11.548;2023-02-13T01:23:51;54.30;;;20.85;;
72864;SDS011;61000;48.120;11.548;2023-02-13T01:26:19;54.92;;;19.75;;
72864;SDS011;61000;48.120;11.548;2023-02-13T01:28:50;46.13;;;19.73;;
72864;SDS011;61000;48.120;11.548;2023-02-13T01:31:18;48.53;;;18.75;;
72864;SDS011;61000;48.120;11.548;2023-02-13T01:33:48;47.08;;;19.80;;
72864;SDS011;61000;48.120;11.548;2023-02-13T01:36:15;50.45;;;20.83;;
72864;SDS011;61000;48.120;11.548;2023-02-13T01:38:43;54.38;;;19.38;;
72864;SDS011;61000;48.120;11.548;2023-02-13T01:41:10;44.40;;;17.95;;
72864;SDS011;61000;48.120;11.548;2023-02-13T01:43:47;38.40;;;17.23;;
72864;SDS011;61000;48.120;11.548;2023-02-13T01:46:19;42.00;;;17.65;;
72864;SDS011;61000;48.120;11.548;2023-02-13T01:48:50;49.05;;;19.60;;
72864;SDS011;61000;48.120;11.548;2023-02-13T01:51:20;53.42;;;20.15;;
72864;SDS011;61000;48.120;11.548;2023-02-13T01:53:55;51.80;;;20.60;;
72864;SDS011;61000;48.120;11.548;2023-02-13T01:56:26;58.85;;;21.33;;
72864;SDS011;61000;48.120;11.548;2023-02-13T01:58:58;40.50;;;17.10;;
72864;SDS011;61000;48.120;11.548;2023-02-13T02:01:27;45.75;;;18.15;;
72864;SDS011;61000;48.120;11.548;2023-02-13T02:03:56;46.40;;;18.23;;
72864;SDS011;61000;48.120;11.548;2023-02-13T02:06:32;51.30;;;18.48;;
72864;SDS011;61000;48.120;11.548;2023-02-13T02:09:05;48.25;;;17.88;;
72864;SDS011;61000;48.120;11.548;2023-02-13T02:11:40;54.63;;;17.58;;
72864;SDS011;61000;48.120;11.548;2023-02-13T02:14:15;55.30;;;19.45;;
72864;SDS011;61000;48.120;11.548;2023-02-13T02:16:42;50.28;;;20.00;;
72864;SDS011;61000;48.120;11.548;2023-02-13T02:19:10;53.78;;;19.60;;
72864;SDS011;61000;48.120;11.548;2023-02-13T02:24:50;40.58;;;16.08;;
72864;SDS011;61000;48.120;11.548;2023-02-13T02:33:53;43.65;;;17.45;;
72864;SDS011;61000;48.120;11.548;2023-02-13T02:36:36;40.92;;;18.20;;
72864;SDS011;61000;48.120;11.548;2023-02-13T02:39:13;37.30;;;16.73;;
72864;SDS011;61000;48.120;11.548;2023-02-13T02:41:55;39.28;;;17.65;;
72864;SDS011;61000;48.120;11.548;2023-02-13T02:44:33;37.63;;;17.70;;
72864;SDS011;61000;48.120;11.548;2023-02-13T02:47:08;37.35;;;16.05;;
72864;SDS011;61000;48.120;11.548;2023-02-13T02:50:02;37.97;;;15.48;;
72864;SDS011;61000;48.120;11.548;2023-02-13T02:52:56;38.15;;;17.50;;
72864;SDS011;61000;48.120;11.548;2023-02-13T02:55:42;34.70;;;17.33;;
72864;SDS011;61000;48.120;11.548;2023-02-13T02:58:17;33.33;;;15.38;;
72864;SDS011;61000;48.120;11.548;2023-02-13T03:01:05;34.13;;;15.65;;
72864;SDS011;61000;48.120;11.548;2023-02-13T03:03:53;34.67;;;16.55;;
72864;SDS011;61000;48.120;11.548;2023-02-13T03:06:42;33.80;;;15.25;;
72864;SDS011;61000;48.120;11.548;2023-02-13T03:09:12;32.83;;;14.60;;
72864;SDS011;61000;48.120;11.548;2023-02-13T03:12:01;29.75;;;12.63;;
72864;SDS011;61000;48.120;11.548;2023-02-13T03:14:46;24.80;;;12.80;;
72864;SDS011;61000;48.120;11.548;2023-02-13T03:17:14;27.77;;;13.48;;
72864;SDS011;61000;48.120;11.548;2023-02-13T03:20:06;31.25;;;14.95;;
72864;SDS011;61000;48.120;11.548;2023-02-13T03:23:05;29.60;;;14.68;;
72864;SDS011;61000;48.120;11.548;2023-02-13T03:25:44;34.33;;;15.30;;
72864;SDS011;61000;48.120;11.548;2023-02-13T03:28:21;29.38;;;14.50;;
72864;SDS011;61000;48.120;11.548;2023-02-13T03:31:27;31.00;;;15.57;;
72864;SDS011;61000;48.120;11.548;2023-02-13T03:34:02;33.22;;;15.32;;
72864;SDS011;61000;48.120;11.548;2023-02-13T03:36:32;29.92;;;14.30;;
72864;SDS011;61000;48.120;11.548;2023-02-13T03:39:30;32.22;;;15.05;;
72864;SDS011;61000;48.120;11.548;2023-02-13T03:42:09;27.95;;;13.95;;
72864;SDS011;61000;48.120;11.548;2023-02-13T03:44:41;29.65;;;14.38;;
72864;SDS011;61000;48.120;11.548;2023-02-13T03:47:33;23.83;;;13.27;;
72864;SDS011;61000;48.120;11.548;2023-02-13T03:50:01;23.05;;;12.13;;
72864;SDS011;61000;48.120;11.548;2023-02-13T03:52:31;27.08;;;13.45;;
72864;SDS011;61000;48.120;11.548;2023-02-13T03:55:03;21.80;;;11.27;;
72864;SDS011;61000;48.120;11.548;2023-02-13T03:57:51;21.65;;;12.23;;
72864;SDS011;61000;48.120;11.548;2023-02-13T04:00:38;23.08;;;12.80;;
72864;SDS011;61000;48.120;11.548;2023-02-13T04:03:09;21.77;;;12.10;;
72864;SDS011;61000;48.120;11.548;2023-02-13T04:05:40;21.38;;;12.25;;
72864;SDS011;61000;48.120;11.548;2023-02-13T04:08:10;22.38;;;12.23;;
72864;SDS011;61000;48.120;11.548;2023-02-13T04:10:40;25.50;;;12.50;;
72864;SDS011;61000;48.120;11.548;2023-02-13T04:13:16;24.92;;;12.68;;
72864;SDS011;61000;48.120;11.548;2023-02-13T04:15:47;24.38;;;12.93;;
72864;SDS011;61000;48.120;11.548;2023-02-13T04:18:19;24.13;;;13.15;;
72864;SDS011;61000;48.120;11.548;2023-02-13T04:20:48;26.63;;;14.43;;
72864;SDS011;61000;48.120;11.548;2023-02-13T04:23:15;27.80;;;14.05;;
72864;SDS011;61000;48.120;11.548;2023-02-13T04:25:44;24.02;;;13.40;;
72864;SDS011;61000;48.120;11.548;2023-02-13T04:28:13;24.38;;;12.88;;
72864;SDS011;61000;48.120;11.548;2023-02-13T04:30:40;27.25;;;13.88;;
72864;SDS011;61000;48.120;11.548;2023-02-13T04:33:07;20.27;;;12.25;;
72864;SDS011;61000;48.120;11.548;2023-02-13T04:35:34;24.25;;;13.63;;
72864;SDS011;61000;48.120;11.548;2023-02-13T04:38:01;25.67;;;14.10;;
72864;SDS011;61000;48.120;11.548;2023-02-13T04:40:28;22.80;;;12.88;;
72864;SDS011;61000;48.120;11.548;2023-02-13T04:42:56;24.27;;;13.43;;
72864;SDS011;61000;48.120;11.548;2023-02-13T04:45:23;25.83;;;13.82;;
72864;SDS011;61000;48.120;11.548;2023-02-13T04:47:50;24.33;;;13.70;;
72864;SDS011;61000;48.120;11.548;2023-02-13T04:50:17;27.00;;;13.90;;
72864;SDS011;61000;48.120;11.548;2023-02-13T04:52:45;31.90;;;14.80;;
72864;SDS011;61000;48.120;11.548;2023-02-13T04:55:12;29.45;;;15.30;;
72864;SDS011;61000;48.120;11.548;2023-02-13T04:57:39;32.63;;;15.32;;
72864;SDS011;61000;48.120;11.548;2023-02-13T05:00:08;27.65;;;14.52;;
72864;SDS011;61000;48.120;11.548;2023-02-13T05:02:36;28.65;;;14.48;;
72864;SDS011;61000;48.120;11.548;2023-02-13T05:05:03;29.90;;;14.27;;
72864;SDS011;61000;48.120;11.548;2023-02-13T05:07:30;25.67;;;14.88;;
72864;SDS011;61000;48.120;11.548;2023-02-13T05:09:57;26.50;;;13.95;;
72864;SDS011;61000;48.120;11.548;2023-02-13T05:12:24;25.85;;;14.30;;
72864;SDS011;61000;48.120;11.548;2023-02-13T05:14:51;28.95;;;15.50;;
72864;SDS011;61000;48.120;11.548;2023-02-13T05:17:19;27.88;;;14.15;;
72864;SDS011;61000;48.120;11.548;2023-02-13T05:19:46;30.40;;;14.60;;
72864;SDS011;61000;48.120;11.548;2023-02-13T05:22:12;27.52;;;13.70;;
72864;SDS011;61000;48.120;11.548;2023-02-13T05:24:57;24.30;;;13.77;;
72864;SDS011;61000;48.120;11.548;2023-02-13T05:27:24;25.45;;;15.05;;
72864;SDS011;61000;48.120;11.548;2023-02-13T05:29:51;29.13;;;15.00;;
72864;SDS011;61000;48.120;11.548;2023-02-13T05:32:16;32.20;;;16.95;;
72864;SDS011;61000;48.120;11.548;2023-02-13T05:34:45;25.27;;;14.45;;
72864;SDS011;61000;48.120;11.548;2023-02-13T05:37:11;27.40;;;15.30;;
72864;SDS011;61000;48.120;11.548;2023-02-13T05:39:38;24.65;;;14.20;;
72864;SDS011;61000;48.120;11.548;2023-02-13T05:42:05;30.30;;;15.30;;
72864;SDS011;61000;48.120;11.548;2023-02-13T05:44:33;32.33;;;15.25;;
72864;SDS011;61000;48.120;11.548;2023-02-13T05:46:59;29.58;;;14.52;;
72864;SDS011;61000;48.120;11.548;2023-02-13T05:49:28;30.70;;;15.50;;
72864;SDS011;61000;48.120;11.548;2023-02-13T05:51:55;29.42;;;15.63;;
72864;SDS011;61000;48.120;11.548;2023-02-13T05:54:22;31.80;;;16.20;;
72864;SDS011;61000;48.120;11.548;2023-02-13T05:56:48;27.83;;;15.75;;
72864;SDS011;61000;48.120;11.548;2023-02-13T05:59:15;29.65;;;15.95;;
72864;SDS011;61000;48.120;11.548;2023-02-13T06:01:42;30.92;;;15.65;;
72864;SDS011;61000;48.120;11.548;2023-02-13T06:04:09;32.83;;;16.10;;
72864;SDS011;61000;48.120;11.548;2023-02-13T06:06:37;33.88;;;16.63;;
72864;SDS011;61000;48.120;11.548;2023-02-13T06:09:04;33.30;;;17.02;;
72864;SDS011;61000;48.120;11.548;2023-02-13T06:11:31;32.15;;;16.48;;
72864;SDS011;61000;48.120;11.548;2023-02-13T06:13:58;28.48;;;15.35;;
72864;SDS011;61000;48.120;11.548;2023-02-13T06:16:24;28.55;;;15.43;;
72864;SDS011;61000;48.120;11.548;2023-02-13T06:18:51;34.83;;;16.35;;
72864;SDS011;61000;48.120;11.548;2023-02-13T06:21:18;28.42;;;15.25;;
72864;SDS011;61000;48.120;11.548;2023-02-13T06:23:46;30.92;;;16.83;;
72864;SDS011;61000;48.120;11.548;2023-02-13T06:26:13;29.77;;;14.85;;
72864;SDS011;61000;48.120;11.548;2023-02-13T06:28:40;29.88;;;16.38;;
72864;SDS011;61000;48.120;11.548;2023-02-13T06:31:07;28.25;;;16.17;;
72864;SDS011;61000;48.120;11.548;2023-02-13T06:33:34;29.90;;;16.35;;
72864;SDS011;61000;48.120;11.548;2023-02-13T06:36:01;31.15;;;16.83;;
72864;SDS011;61000;48.120;11.548;2023-02-13T06:38:27;31.13;;;16.25;;
72864;SDS011;61000;48.120;11.548;2023-02-13T06:40:59;34.72;;;16.95;;
72864;SDS011;61000;48.120;11.548;2023-02-13T06:43:27;35.75;;;16.70;;
72864;SDS011;61000;48.120;11.548;2023-02-13T06:45:53;30.45;;;15.18;;
72864;SDS011;61000;48.120;11.548;2023-02-13T06:48:21;33.38;;;15.80;;
72864;SDS011;61000;48.120;11.548;2023-02-13T06:50:48;36.00;;;17.20;;
72864;SDS011;61000;48.120;11.548;2023-02-13T06:53:16;34.35;;;16.42;;
72864;SDS011;61000;48.120;11.548;2023-02-13T06:55:44;31.35;;;16.55;;
72864;SDS011;61000;48.120;11.548;2023-02-13T06:58:12;33.60;;;17.25;;
72864;SDS011;61000;48.120;11.548;2023-02-13T07:00:39;36.38;;;18.13;;
72864;SDS011;61000;48.120;11.548;2023-02-13T07:03:06;34.42;;;17.05;;
72864;SDS011;61000;48.120;11.548;2023-02-13T07:05:34;31.58;;;17.35;;
72864;SDS011;61000;48.120;11.548;2023-02-13T07:08:00;31.13;;;16.63;;
72864;SDS011;61000;48.120;11.548;2023-02-13T07:10:27;34.78;;;17.35;;
72864;SDS011;61000;48.120;11.548;2023-02-13T07:12:54;33.38;;;17.45;;
72864;SDS011;61000;48.120;11.548;2023-02-13T07:15:22;32.72;;;17.38;;
72864;SDS011;61000;48.120;11.548;2023-02-13T07:17:54;33.65;;;16.55;;
72864;SDS011;61000;48.120;11.548;2023-02-13T07:20:21;33.47;;;17.48;;
72864;SDS011;61000;48.120;11.548;2023-02-13T07:22:48;33.35;;;17.45;;
72864;SDS011;61000;48.120;11.548;2023-02-13T07:25:15;33.20;;;16.92;;
72864;SDS011;61000;48.120;11.548;2023-02-13T07:27:42;32.80;;;18.33;;
72864;SDS011;61000;48.120;11.548;2023-02-13T07:30:09;34.35;;;17.38;;
72864;SDS011;61000;48.120;11.548;2023-02-13T07:32:38;30.83;;;17.45;;
72864;SDS011;61000;48.120;11.548;2023-02-13T07:35:05;35.70;;;18.42;;
72864;SDS011;61000;48.120;11.548;2023-02-13T07:37:32;32.15;;;16.90;;
72864;SDS011;61000;48.120;11.548;2023-02-13T07:39:58;36.50;;;18.83;;
72864;SDS011;61000;48.120;11.548;2023-02-13T07:42:25;32.97;;;18.83;;
72864;SDS011;61000;48.120;11.548;2023-02-13T07:44:52;35.53;;;18.35;;
72864;SDS011;61000;48.120;11.548;2023-02-13T07:47:19;35.30;;;17.67;;
72864;SDS011;61000;48.120;11.548;2023-02-13T07:49:47;32.08;;;16.60;;
72864;SDS011;61000;48.120;11.548;2023-02-13T07:52:14;33.80;;;18.25;;
72864;SDS011;61000;48.120;11.548;2023-02-13T07:54:41;34.92;;;18.27;;
72864;SDS011;61000;48.120;11.548;2023-02-13T07:57:11;36.83;;;18.25;;
72864;SDS011;61000;48.120;11.548;2023-02-13T07:59:38;34.03;;;17.83;;
72864;SDS011;61000;48.120;11.548;2023-02-13T08:02:07;32.22;;;16.77;;
72864;SDS011;61000;48.120;11.548;2023-02-13T08:04:37;35.55;;;17.50;;
72864;SDS011;61000;48.120;11.548;2023-02-13T08:07:05;33.60;;;17.80;;
72864;SDS011;61000;48.120;11.548;2023-02-13T08:09:32;35.70;;;17.00;;
72864;SDS011;61000;48.120;11.548;2023-02-13T08:12:16;31.75;;;17.20;;
72864;SDS011;61000;48.120;11.548;2023-02-13T08:14:43;36.80;;;18.52;;
72864;SDS011;61000;48.120;11.548;2023-02-13T08:17:10;31.70;;;16.25;;
72864;SDS011;61000;48.120;11.548;2023-02-13T08:19:37;35.22;;;17.10;;
72864;SDS011;61000;48.120;11.548;2023-02-13T08:22:05;41.25;;;17.17;;
72864;SDS011;61000;48.120;11.548;2023-02-13T08:24:32;38.45;;;18.30;;
72864;SDS011;61000;48.120;11.548;2023-02-13T08:26:59;43.22;;;19.30;;
72864;SDS011;61000;48.120;11.548;2023-02-13T08:29:26;41.70;;;17.58;;
72864;SDS011;61000;48.120;11.548;2023-02-13T08:31:53;32.60;;;16.95;;
72864;SDS011;61000;48.120;11.548;2023-02-13T08:34:20;31.13;;;16.58;;
72864;SDS011;61000;48.120;11.548;2023-02-13T08:36:47;38.13;;;18.38;;
72864;SDS011;61000;48.120;11.548;2023-02-13T08:39:15;37.85;;;18.05;;
72864;SDS011;61000;48.120;11.548;2023-02-13T08:41:42;37.50;;;18.73;;
72864;SDS011;61000;48.120;11.548;2023-02-13T08:44:08;35.45;;;17.20;;
72864;SDS011;61000;48.120;11.548;2023-02-13T08:46:36;31.15;;;16.08;;
72864;SDS011;61000;48.120;11.548;2023-02-13T08:49:03;32.38;;;18.10;;
72864;SDS011;61000;48.120;11.548;2023-02-13T08:51:29;30.92;;;16.42;;
72864;SDS011;61000;48.120;11.548;2023-02-13T08:53:57;33.40;;;18.42;;
72864;SDS011;61000;48.120;11.548;2023-02-13T08:56:25;37.13;;;17.92;;
72864;SDS011;61000;48.120;11.548;2023-02-13T08:58:52;30.40;;;17.00;;
72864;SDS011;61000;48.120;11.548;2023-02-13T09:01:19;34.75;;;18.17;;
72864;SDS011;61000;48.120;11.548;2023-02-13T09:03:48;30.63;;;17.10;;
72864;SDS011;61000;48.120;11.548;2023-02-13T09:06:15;31.73;;;16.65;;
72864;SDS011;61000;48.120;11.548;2023-02-13T09:08:42;33.22;;;17.40;;
72864;SDS011;61000;48.120;11.548;2023-02-13T09:11:09;36.70;;;18.80;;
72864;SDS011;61000;48.120;11.548;2023-02-13T09:13:37;33.17;;;17.80;;
72864;SDS011;61000;48.120;11.548;2023-02-13T09:16:05;30.90;;;17.63;;
72864;SDS011;61000;48.120;11.548;2023-02-13T09:18:33;27.73;;;16.10;;
72864;SDS011;61000;48.120;11.548;2023-02-13T09:21:00;33.15;;;16.00;;
72864;SDS011;61000;48.120;11.548;2023-02-13T09:23:30;30.88;;;17.33;;
72864;SDS011;61000;48.120;11.548;2023-02-13T09:25:57;29.92;;;16.08;;
72864;SDS011;61000;48.120;11.548;2023-02-13T09:28:26;30.15;;;15.18;;
72864;SDS011;61000;48.120;11.548;2023-02-13T09:30:54;30.88;;;17.08;;
72864;SDS011;61000;48.120;11.548;2023-02-13T09:33:21;35.13;;;16.08;;
72864;SDS011;61000;48.120;11.548;2023-02-13T09:35:48;31.58;;;15.88;;
72864;SDS011;61000;48.120;11.548;2023-02-13T09:38:15;50.63;;;18.55;;
72864;SDS011;61000;48.120;11.548;2023-02-13T09:40:43;30.85;;;15.77;;
72864;SDS011;61000;48.120;11.548;2023-02-13T09:43:15;31.17;;;16.48;;
72864;SDS011;61000;48.120;11.548;2023-02-13T09:45:47;32.78;;;16.52;;
72864;SDS011;61000;48.120;11.548;2023-02-13T09:48:20;32.33;;;16.10;;
72864;SDS011;61000;48.120;11.548;2023-02-13T09:50:53;32.20;;;15.65;;
72864;SDS011;61000;48.120;11.548;2023-02-13T09:53:21;31.20;;;16.85;;
72864;SDS011;61000;48.120;11.548;2023-02-13T09:55:57;27.02;;;15.52;;
72864;SDS011;61000;48.120;11.548;2023-02-13T09:58:35;34.00;;;17.13;;
72864;SDS011;61000;48.120;11.548;2023-02-13T10:01:13;26.52;;;15.90;;
72864;SDS011;61000;48.120;11.548;2023-02-13T10:03:47;28.55;;;15.27;;
72864;SDS011;61000;48.120;11.548;2023-02-13T10:06:22;29.20;;;15.50;;
72864;SDS011;61000;48.120;11.548;2023-02-13T10:08:58;31.23;;;15.80;;
72864;SDS011;61000;48.120;11.548;2023-02-13T10:11:38;31.95;;;15.98;;
72864;SDS011;61000;48.120;11.548;2023-02-13T10:14:20;32.30;;;16.45;;
72864;SDS011;61000;48.120;11.548;2023-02-13T10:16:52;29.80;;;16.23;;
72864;SDS011;61000;48.120;11.548;2023-02-13T10:19:30;32.42;;;16.67;;
72864;SDS011;61000;48.120;11.548;2023-02-13T10:22:03;36.53;;;17.55;;
72864;SDS011;61000;48.120;11.548;2023-02-13T10:24:33;30.08;;;16.42;;
72864;SDS011;61000;48.120;11.548;2023-02-13T10:27:05;28.35;;;15.48;;
72864;SDS011;61000;48.120;11.548;2023-02-13T10:29:40;27.50;;;15.55;;
72864;SDS011;61000;48.120;11.548;2023-02-13T10:32:28;30.20;;;16.10;;
72864;SDS011;61000;48.120;11.548;2023-02-13T10:34:57;26.98;;;15.60;;
72864;SDS011;61000;48.120;11.548;2023-02-13T10:37:27;28.02;;;16.00;;
72864;SDS011;61000;48.120;11.548;2023-02-13T10:39:54;26.45;;;15.15;;
72864;SDS011;61000;48.120;11.548;2023-02-13T10:42:22;29.38;;;16.17;;
72864;SDS011;61000;48.120;11.548;2023-02-13T10:45:03;29.13;;;16.08;;
72864;SDS011;61000;48.120;11.548;2023-02-13T10:47:53;29.90;;;16.42;;
72864;SDS011;61000;48.120;11.548;2023-02-13T10:50:33;34.53;;;16.80;;
72864;SDS011;61000;48.120;11.548;2023-02-13T10:53:08;28.77;;;16.50;;
72864;SDS011;61000;48.120;11.548;2023-02-13T10:55:46;29.77;;;16.52;;
72864;SDS011;61000;48.120;11.548;2023-02-13T10:58:24;32.50;;;16.88;;
72864;SDS011;61000;48.120;11.548;2023-02-13T11:00:57;36.15;;;17.33;;
72864;SDS011;61000;48.120;11.548;2023-02-13T11:03:28;32.38;;;17.05;;
72864;SDS011;61000;48.120;11.548;2023-02-13T11:05:57;34.92;;;17.35;;
72864;SDS011;61000;48.120;11.548;2023-02-13T11:08:27;32.72;;;17.65;;
72864;SDS011;61000;48.120;11.548;2023-02-13T11:10:58;31.17;;;17.50;;
72864;SDS011;61000;48.120;11.548;2023-02-13T11:13:25;37.42;;;18.25;;
72864;SDS011;61000;48.120;11.548;2023-02-13T11:15:57;34.38;;;18.02;;
72864;SDS011;61000;48.120;11.548;2023-02-13T11:18:29;31.70;;;17.58;;
72864;SDS011;61000;48.120;11.548;2023-02-13T11:21:01;37.55;;;18.90;;
72864;SDS011;61000;48.120;11.548;2023-02-13T11:23:34;37.83;;;18.20;;
72864;SDS011;61000;48.120;11.548;2023-02-13T11:26:05;34.90;;;16.95;;
72864;SDS011;61000;48.120;11.548;2023-02-13T11:28:35;34.65;;;18.42;;
72864;SDS011;61000;48.120;11.548;2023-02-13T11:31:23;39.55;;;19.77;;
72864;SDS011;61000;48.120;11.548;2023-02-13T11:33:54;33.05;;;18.10;;
72864;SDS011;61000;48.120;11.548;2023-02-13T11:36:24;38.35;;;18.67;;
72864;SDS011;61000;48.120;11.548;2023-02-13T11:38:56;35.42;;;18.55;;
72864;SDS011;61000;48.120;11.548;2023-02-13T11:41:28;34.10;;;18.60;;
72864;SDS011;61000;48.120;11.548;2023-02-13T11:43:56;34.65;;;17.90;;
72864;SDS011;61000;48.120;11.548;2023-02-13T11:46:26;40.15;;;18.38;;
72864;SDS011;61000;48.120;11.548;2023-02-13T11:48:55;37.83;;;17.83;;
72864;SDS011;61000;48.120;11.548;2023-02-13T11:51:35;34.05;;;18.17;;
72864;SDS011;61000;48.120;11.548;2023-02-13T11:54:03;36.45;;;18.75;;
72864;SDS011;61000;48.120;11.548;2023-02-13T11:56:41;38.22;;;18.90;;
72864;SDS011;61000;48.120;11.548;2023-02-13T11:59:14;33.35;;;17.40;;
72864;SDS011;61000;48.120;11.548;2023-02-13T12:01:41;34.20;;;18.85;;
72864;SDS011;61000;48.120;11.548;2023-02-13T12:04:13;33.75;;;18.83;;
72864;SDS011;61000;48.120;11.548;2023-02-13T12:06:57;34.00;;;19.48;;
72864;SDS011;61000;48.120;11.548;2023-02-13T12:09:26;35.72;;;17.90;;
72864;SDS011;61000;48.120;11.548;2023-02-13T12:11:54;34.55;;;17.40;;
72864;SDS011;61000;48.120;11.548;2023-02-13T12:14:24;34.40;;;19.13;;
72864;SDS011;61000;48.120;11.548;2023-02-13T12:16:56;34.40;;;18.08;;
72864;SDS011;61000;48.120;11.548;2023-02-13T12:19:27;39.60;;;19.30;;
72864;SDS011;61000;48.120;11.548;2023-02-13T12:22:06;35.58;;;19.85;;
72864;SDS011;61000;48.120;11.548;2023-02-13T12:24:46;32.22;;;17.42;;
72864;SDS011;61000;48.120;11.548;2023-02-13T12:27:34;32.75;;;17.05;;
72864;SDS011;61000;48.120;11.548;2023-02-13T12:30:16;34.78;;;18.58;;
72864;SDS011;61000;48.120;11.548;2023-02-13T12:33:07;35.33;;;19.30;;
72864;SDS011;61000;48.120;11.548;2023-02-13T12:35:46;33.08;;;18.42;;
72864;SDS011;61000;48.120;11.548;2023-02-13T12:38:26;32.85;;;18.05;;
72864;SDS011;61000;48.120;11.548;2023-02-13T12:41:05;32.45;;;18.45;;
72864;SDS011;61000;48.120;11.548;2023-02-13T12:44:02;33.08;;;17.63;;
72864;SDS011;61000;48.120;11.548;2023-02-13T12:46:55;34.80;;;17.35;;
72864;SDS011;61000;48.120;11.548;2023-02-13T12:49:37;35.60;;;18.63;;
72864;SDS011;61000;48.120;11.548;2023-02-13T12:52:23;34.25;;;18.77;;
72864;SDS011;61000;48.120;11.548;2023-02-13T12:55:04;35.08;;;18.85;;
72864;SDS011;61000;48.120;11.548;2023-02-13T12:57:51;35.40;;;18.15;;
72864;SDS011;61000;48.120;11.548;2023-02-13T13:00:30;35.35;;;18.77;;
72864;SDS011;61000;48.120;11.548;2023-02-13T13:03:14;35.05;;;18.52;;
72864;SDS011;61000;48.120;11.548;2023-02-13T13:06:00;39.97;;;20.70;;
72864;SDS011;61000;48.120;11.548;2023-02-13T13:08:48;38.03;;;20.80;;
72864;SDS011;61000;48.120;11.548;2023-02-13T13:11:36;34.85;;;18.30;;
72864;SDS011;61000;48.120;11.548;2023-02-13T13:14:17;35.55;;;19.77;;
72864;SDS011;61000;48.120;11.548;2023-02-13T13:16:52;34.55;;;18.33;;
72864;SDS011;61000;48.120;11.548;2023-02-13T13:19:30;39.40;;;19.30;;
72864;SDS011;61000;48.120;11.548;2023-02-13T13:22:06;38.35;;;19.67;;
72864;SDS011;61000;48.120;11.548;2023-02-13T13:24:40;37.95;;;18.92;;
72864;SDS011;61000;48.120;11.548;2023-02-13T13:27:18;31.52;;;18.42;;
72864;SDS011;61000;48.120;11.548;2023-02-13T13:29:50;38.33;;;19.58;;
72864;SDS011;61000;48.120;11.548;2023-02-13T13:32:21;37.70;;;19.55;;
72864;SDS011;61000;48.120;11.548;2023-02-13T13:34:49;36.40;;;18.08;;
72864;SDS011;61000;48.120;11.548;2023-02-13T13:37:19;32.92;;;18.90;;
72864;SDS011;61000;48.120;11.548;2023-02-13T13:39:55;35.88;;;19.02;;
72864;SDS011;61000;48.120;11.548;2023-02-13T13:42:29;34.63;;;17.58;;
72864;SDS011;61000;48.120;11.548;2023-02-13T13:50:49;29.52;;;16.52;;
72864;SDS011;61000;48.120;11.548;2023-02-13T13:53:16;33.53;;;17.20;;
72864;SDS011;61000;48.120;11.548;2023-02-13T13:55:58;35.25;;;17.67;;
72864;SDS011;61000;48.120;11.548;2023-02-13T13:58:41;31.25;;;16.90;;
72864;SDS011;61000;48.120;11.548;2023-02-13T14:01:18;29.80;;;16.08;;
72864;SDS011;61000;48.120;11.548;2023-02-13T14:03:50;22.33;;;14.30;;
72864;SDS011;61000;48.120;11.548;2023-02-13T14:06:18;25.92;;;15.32;;
72864;SDS011;61000;48.120;11.548;2023-02-13T14:15:47;32.08;;;17.48;;
72864;SDS011;61000;48.120;11.548;2023-02-13T14:18:16;28.02;;;15.60;;
72864;SDS011;61000;48.120;11.548;2023-02-13T14:20:49;26.45;;;15.18;;
72864;SDS011;61000;48.120;11.548;2023-02-13T14:23:20;24.10;;;15.07;;
72864;SDS011;61000;48.120;11.548;2023-02-13T14:26:09;27.75;;;15.23;;
72864;SDS011;61000;48.120;11.548;2023-02-13T14:28:42;33.47;;;15.27;;
72864;SDS011;61000;48.120;11.548;2023-02-13T14:31:24;27.13;;;15.60;;
72864;SDS011;61000;48.120;11.548;2023-02-13T14:33:54;25.15;;;14.75;;
72864;SDS011;61000;48.120;11.548;2023-02-13T14:36:22;25.02;;;14.45;;
72864;SDS011;61000;48.120;11.548;2023-02-13T14:38:56;32.38;;;15.52;;
72864;SDS011;61000;48.120;11.548;2023-02-13T14:41:42;26.98;;;15.07;;
72864;SDS011;61000;48.120;11.548;2023-02-13T14:44:15;25.08;;;15.43;;
72864;SDS011;61000;48.120;11.548;2023-02-13T14:46:46;23.50;;;13.75;;
72864;SDS011;61000;48.120;11.548;2023-02-13T14:49:15;22.67;;;13.32;;
72864;SDS011;61000;48.120;11.548;2023-02-13T14:51:46;29.58;;;14.50;;
72864;SDS011;61000;48.120;11.548;2023-02-13T14:54:22;29.80;;;13.20;;
72864;SDS011;61000;48.120;11.548;2023-02-13T14:56:53;31.17;;;15.00;;